Flight Track Log - Related Links

Times and Time Zones

All times are in EDT time to prevent confusion due to time zone crossing. See the N935SS flight status page for this flight to view local times or setup timezone preferences in your user account.

Time Position Orientation Groundspeed Altitude Reporting Facility
EDT Latitude Longitude Course Direction KTS MPH feet Rate Location/Type
Sun 01:50:31 PM 42.4667 -71.3167 231° Southwest 191 220 1,000  Level KA90
Sun 01:51:38 PM 42.4167 -71.4000 231° Southwest 267 307 3,000 3,574 Climbing KA90
Sun 01:53:39 PM 42.3636 -71.5661 247° West 257 296 12,200 3,646 Climbing Boston Center
Sun 01:54:39 PM 42.3561 -71.6647 264° West 280 322 14,000 1,700 Climbing Boston Center
Sun 01:55:39 PM 42.3111 -71.7972 245° Southwest 332 382 15,600 1,050 Climbing Boston Center
Sun 01:56:39 PM 42.2594 -71.9183 240° Southwest 363 418 16,100 227 Climbing Boston Center
Sun 01:57:51 PM 42.2142 -72.0308 242° Southwest 363 418 16,100  Level Boston Center
Sun 01:58:51 PM 42.1583 -72.1656 241° Southwest 357 411 16,100  Level Boston Center
Sun 01:59:51 PM 42.1147 -72.2722 241° Southwest 357 411 16,100  Level Boston Center
Sun 02:00:51 PM 42.0628 -72.3953 240° Southwest 357 411 16,100  Level Boston Center
Sun 02:01:51 PM 42.0169 -72.5044 239° Southwest 362 417 16,100  Level Boston Center
Sun 02:02:00 PM 42.0141 -72.5039 239° Southwest  Level FlightAware Approximate
Sun 02:02:51 PM 41.9731 -72.6106 241° Southwest 362 417 16,100  Level Boston Center
Sun 02:03:51 PM 41.9122 -72.7553 241° Southwest 372 428 15,500 -800 Descending Boston Center
Sun 02:04:51 PM 41.8639 -72.8722 241° Southwest 372 428 14,500 -1,000 Descending Boston Center
Sun 02:05:51 PM 41.8133 -72.9889 240° Southwest 372 428 13,500 -1,050 Descending Boston Center
Sun 02:06:51 PM 41.7647 -73.1081 241° Southwest 372 428 12,400 -700 Descending Boston Center
Sun 02:07:51 PM 41.7161 -73.2272 241° Southwest 372 428 12,100 -600 Descending Boston Center
Sun 02:08:51 PM 41.6717 -73.3350 241° Southwest 358 412 11,200 -1,247 Descending Boston Center
Sun 02:10:25 PM 41.6167 -73.4667 241° Southwest 278 320 8,900 -1,481 Descending New York TRACON
Sun 02:11:25 PM 41.5667 -73.5667 236° Southwest 287 330 7,400 -1,526 Descending New York TRACON
Sun 02:12:19 PM 41.5333 -73.6500 242° Southwest 279 321 6,000 -1,500 Descending New York TRACON
Sun 02:13:25 PM 41.5000 -73.7333 242° Southwest 273 314 4,400 -950 Descending New York TRACON
Sun 02:14:19 PM 41.4667 -73.8167 242° Southwest 261 300 4,100 -158 Descending New York TRACON
Sun 02:15:19 PM 41.4000 -73.8500 201° Southwest 286 329 4,100 -50 Level New York TRACON
Sun 02:16:19 PM 41.3333 -73.7833 143° Southeast 278 320 4,000  Descending New York TRACON
Sun 02:17:19 PM 41.2667 -73.7333 151° Southeast 269 310 4,100 -100 Climbing New York TRACON
Sun 02:18:19 PM 41.2000 -73.6833 151° Southeast 259 298 3,800 -476 Descending New York TRACON
Sun 02:19:25 PM 41.1500 -73.6167 135° Southeast 257 296 3,100 -600 Descending New York TRACON
Sun 02:20:19 PM 41.0833 -73.5833 159° South 274 315 2,600 -526 Descending New York TRACON
Sun 02:21:19 PM 41.0000 -73.5667 171° South 272 313 2,100 -350 Descending New York TRACON
Sun 02:22:19 PM 40.9833 -73.6333 252° West 196 226 1,900 -400 Descending New York TRACON
Sun 02:23:19 PM 41.0167 -73.6667 323° Northwest 175 201 1,300 -600 Descending New York TRACON
Sun 02:25:00 PM 41.0667 -73.7000 255° West  Level FlightAware Approximate
Sun 02:32:00 PM 41.0669 -73.7076 255° West  Level Estimated
Sun 02:33:00 PM 41.0667 -73.7000 255° West  Level FlightAware Approximate

Login

Don't have an account? Register now (free) for customized features, flight alerts, and more!